Time;durP1;ratioP1;P1;durP2;ratioP2;P2;SDS_P1;SDS_P2;PMS_P1;PMS_P2;Temp;Humidity;BMP_temperature;BMP_pressure;BME280_temperature;BME280_humidity;BME280_pressure;Samples;Min_cycle;Max_cycle;Signal;HPM_P1;HPM_P2
2022/02/19 00:02:14;;;;;;;2.30;0.90;;;11.60;29.40;;;;;;10372482;28;20233;-73
2022/02/19 00:07:18;;;;;;;2.20;1.10;;;11.60;29.40;;;;;;10361531;28;20219;-73
2022/02/19 00:12:22;;;;;;;2.57;1.10;;;11.60;29.40;;;;;;10373079;28;20234;-73
2022/02/19 00:17:25;;;;;;;1.43;0.90;;;11.60;29.40;;;;;;10368087;28;20231;-73
2022/02/19 00:22:29;;;;;;;1.87;1.00;;;11.50;29.40;;;;;;10368734;28;20305;-72
2022/02/19 00:27:33;;;;;;;2.30;0.80;;;11.50;29.40;;;;;;10373309;28;20230;-73
2022/02/19 00:32:37;;;;;;;1.63;1.10;;;11.50;29.40;;;;;;10374781;28;20651;-73
2022/02/19 00:37:41;;;;;;;2.40;0.93;;;11.40;29.30;;;;;;10370872;28;20313;-72
2022/02/19 00:42:45;;;;;;;1.97;1.00;;;11.30;29.20;;;;;;10373758;28;20234;-73
2022/02/19 00:47:48;;;;;;;2.07;1.00;;;11.30;29.40;;;;;;10371682;28;20702;-72
2022/02/19 00:52:55;;;;;;;1.93;0.97;;;11.30;29.30;;;;;;10371800;28;20214;-73
2022/02/19 00:57:58;;;;;;;1.50;0.90;;;11.20;29.40;;;;;;10376421;28;20226;-71
2022/02/19 01:03:01;;;;;;;3.07;1.10;;;11.20;29.30;;;;;;10368665;28;20222;-72
2022/02/19 01:08:06;;;;;;;3.27;1.10;;;11.20;29.40;;;;;;10374462;28;20228;-72
2022/02/19 01:13:10;;;;;;;1.50;1.10;;;11.20;29.40;;;;;;10367462;28;20230;-71
2022/02/19 01:18:13;;;;;;;2.03;0.90;;;11.20;29.50;;;;;;10366397;28;20332;-71
2022/02/19 01:23:17;;;;;;;1.93;1.00;;;11.10;29.60;;;;;;10375657;28;20234;-71
2022/02/19 01:28:21;;;;;;;3.00;0.93;;;11.10;29.70;;;;;;10365855;28;20229;-71
2022/02/19 01:33:24;;;;;;;1.80;0.97;;;11.00;29.70;;;;;;10364363;28;20249;-71
2022/02/19 01:38:29;;;;;;;2.53;1.10;;;11.00;29.80;;;;;;10366518;28;20225;-71
2022/02/19 01:43:33;;;;;;;1.40;0.87;;;10.90;29.80;;;;;;10368289;28;20226;-71
2022/02/19 01:48:36;;;;;;;2.10;0.90;;;10.90;29.80;;;;;;10368250;28;20618;-71
2022/02/19 01:53:41;;;;;;;2.30;0.87;;;10.90;29.90;;;;;;10367253;28;20233;-71
2022/02/19 01:58:44;;;;;;;1.90;0.80;;;10.90;29.90;;;;;;10368349;28;20241;-75
2022/02/19 02:03:47;;;;;;;3.10;0.90;;;10.80;30.00;;;;;;10368978;28;20226;-75
2022/02/19 02:08:52;;;;;;;2.37;0.90;;;10.80;30.00;;;;;;10367315;28;20241;-75
2022/02/19 02:13:55;;;;;;;3.77;1.00;;;10.80;30.00;;;;;;10367146;28;20222;-75
2022/02/19 02:18:58;;;;;;;1.80;0.77;;;10.80;30.00;;;;;;10365622;28;20604;-75
2022/02/19 02:24:03;;;;;;;1.93;1.07;;;10.80;30.00;;;;;;10372621;28;20745;-75
2022/02/19 02:29:06;;;;;;;2.03;0.90;;;10.70;30.00;;;;;;10363383;28;20249;-75
2022/02/19 02:34:09;;;;;;;3.53;0.90;;;10.70;30.00;;;;;;10367086;28;20226;-75
2022/02/19 02:39:14;;;;;;;1.70;0.70;;;10.70;30.00;;;;;;10366415;28;20234;-75
2022/02/19 02:44:17;;;;;;;2.47;1.10;;;10.60;30.10;;;;;;10373617;28;20236;-75
2022/02/19 02:49:20;;;;;;;2.80;0.90;;;10.60;30.10;;;;;;10372076;28;20229;-75
2022/02/19 02:54:25;;;;;;;2.17;1.07;;;10.60;30.10;;;;;;10367145;28;20281;-72
2022/02/19 02:59:28;;;;;;;1.67;0.87;;;10.60;30.30;;;;;;10363236;28;20726;-72
2022/02/19 03:04:31;;;;;;;2.00;0.90;;;10.50;30.30;;;;;;10366215;28;20222;-71
2022/02/19 03:09:36;;;;;;;2.57;0.90;;;10.40;30.40;;;;;;10362404;28;20233;-71
2022/02/19 03:14:42;;;;;;;1.07;0.90;;;10.40;30.50;;;;;;10370596;28;20290;-71
2022/02/19 03:19:46;;;;;;;1.80;0.87;;;10.40;30.40;;;;;;10364663;28;20238;-71
2022/02/19 03:24:50;;;;;;;1.57;0.77;;;10.30;30.40;;;;;;10365148;28;20222;-71
2022/02/19 03:29:53;;;;;;;1.13;0.80;;;10.30;30.60;;;;;;10361231;28;20232;-72
2022/02/19 03:34:57;;;;;;;1.87;0.80;;;10.30;30.60;;;;;;10362378;28;20222;-72
2022/02/19 03:40:06;;;;;;;1.03;0.70;;;10.20;30.70;;;;;;10368508;28;20236;-72
2022/02/19 03:45:11;;;;;;;1.80;1.00;;;10.20;30.90;;;;;;10363663;28;20668;-72
2022/02/19 03:50:17;;;;;;;2.33;1.00;;;10.20;31.00;;;;;;10371492;28;20254;-71
2022/02/19 03:55:22;;;;;;;1.17;0.93;;;10.20;31.20;;;;;;10371568;28;20726;-71
2022/02/19 04:00:25;;;;;;;2.47;1.00;;;10.20;31.20;;;;;;10371683;28;20234;-71
2022/02/19 04:05:28;;;;;;;1.63;1.10;;;10.20;31.20;;;;;;10368531;28;20233;-71
2022/02/19 04:10:33;;;;;;;2.73;1.30;;;10.10;31.10;;;;;;10368196;28;20560;-72
2022/02/19 04:15:37;;;;;;;3.43;1.30;;;10.20;31.40;;;;;;10372817;28;20217;-72
2022/02/19 04:20:40;;;;;;;2.20;0.93;;;10.20;31.20;;;;;;10370289;28;20754;-72
2022/02/19 04:25:44;;;;;;;3.57;1.20;;;10.20;31.10;;;;;;10368652;28;20232;-72
2022/02/19 04:30:47;;;;;;;3.40;1.10;;;10.20;30.90;;;;;;10373997;28;20745;-72
2022/02/19 04:35:50;;;;;;;3.77;1.30;;;10.20;31.60;;;;;;10371204;28;20217;-72
2022/02/19 04:40:55;;;;;;;4.37;1.13;;;10.20;30.60;;;;;;10367811;28;20226;-72
2022/02/19 04:45:58;;;;;;;2.50;1.10;;;10.20;30.40;;;;;;10368702;28;20594;-72
2022/02/19 04:51:01;;;;;;;2.90;1.30;;;10.10;30.40;;;;;;10374711;28;20850;-72
2022/02/19 04:56:06;;;;;;;3.63;1.20;;;10.00;30.10;;;;;;10371388;28;20237;-75
2022/02/19 05:01:09;;;;;;;3.20;1.20;;;10.00;30.00;;;;;;10367263;28;20994;-75
2022/02/19 05:06:13;;;;;;;2.57;1.20;;;10.00;29.90;;;;;;10370140;28;20230;-75
2022/02/19 05:11:18;;;;;;;2.40;1.10;;;9.90;30.70;;;;;;10370220;28;20234;-75
2022/02/19 05:16:21;;;;;;;5.30;1.40;;;9.90;30.50;;;;;;10363009;28;21798;-75
2022/02/19 05:21:25;;;;;;;4.50;1.10;;;9.90;30.60;;;;;;10369906;28;20253;-75
2022/02/19 05:26:29;;;;;;;4.77;1.30;;;9.90;30.60;;;;;;10369913;28;20230;-75
2022/02/19 05:31:32;;;;;;;4.00;1.40;;;9.90;30.50;;;;;;10366405;28;20218;-75
2022/02/19 05:36:35;;;;;;;3.03;1.20;;;9.90;30.60;;;;;;10365343;28;20234;-75
2022/02/19 05:41:40;;;;;;;2.93;1.30;;;9.80;31.00;;;;;;10365564;28;20480;-72
2022/02/19 05:46:44;;;;;;;5.00;1.40;;;9.80;31.20;;;;;;10363028;28;20221;-72
2022/02/19 05:51:47;;;;;;;3.13;1.07;;;9.70;31.30;;;;;;10367736;28;20233;-72
2022/02/19 05:56:51;;;;;;;1.53;1.10;;;9.60;31.60;;;;;;10366691;28;20222;-72
2022/02/19 06:01:55;;;;;;;3.23;1.27;;;9.60;31.90;;;;;;10362119;28;20733;-72
2022/02/19 06:06:58;;;;;;;2.60;1.23;;;9.60;31.90;;;;;;10363378;28;20232;-72
2022/02/19 06:12:03;;;;;;;2.43;1.30;;;9.50;32.00;;;;;;10364304;28;20246;-73
2022/02/19 06:17:06;;;;;;;3.87;1.40;;;9.50;32.20;;;;;;10362623;28;20233;-73
2022/02/19 06:22:10;;;;;;;3.33;1.27;;;9.50;32.10;;;;;;10365117;28;20226;-72
2022/02/19 06:27:14;;;;;;;2.13;0.93;;;9.50;31.90;;;;;;10366288;28;20539;-72
2022/02/19 06:32:17;;;;;;;3.10;1.47;;;9.50;32.00;;;;;;10362146;28;20226;-73
2022/02/19 06:37:20;;;;;;;3.03;1.30;;;9.50;32.20;;;;;;10360069;28;20233;-72
2022/02/19 06:42:25;;;;;;;4.73;1.50;;;9.40;32.20;;;;;;10363766;28;20706;-73
2022/02/19 06:47:28;;;;;;;3.00;1.27;;;9.40;32.30;;;;;;10364270;28;20226;-72
2022/02/19 06:52:32;;;;;;;5.00;1.53;;;9.40;32.20;;;;;;10357474;28;20226;-73
2022/02/19 06:57:39;;;;;;;3.40;1.20;;;9.40;32.00;;;;;;10359879;28;20222;-72
2022/02/19 07:02:42;;;;;;;2.80;1.10;;;9.40;32.20;;;;;;10359428;28;20222;-72
2022/02/19 07:07:45;;;;;;;3.80;1.37;;;9.40;31.90;;;;;;10361562;28;20234;-72
2022/02/19 07:12:50;;;;;;;5.30;2.03;;;9.40;31.90;;;;;;10356470;28;20736;-72
2022/02/19 07:17:55;;;;;;;3.90;1.47;;;9.40;32.10;;;;;;10359553;28;20226;-73
2022/02/19 07:22:58;;;;;;;2.37;1.63;;;9.40;31.70;;;;;;10369923;28;20674;-72
2022/02/19 07:28:02;;;;;;;4.73;1.50;;;9.40;31.40;;;;;;10366097;28;20312;-73
2022/02/19 07:33:06;;;;;;;4.70;1.60;;;9.40;30.90;;;;;;10368603;28;20230;-72
2022/02/19 07:38:09;;;;;;;4.60;1.70;;;9.50;31.00;;;;;;10363914;28;20269;-72
2022/02/19 07:43:14;;;;;;;5.20;1.40;;;9.60;30.90;;;;;;10370242;28;20230;-73
2022/02/19 07:48:17;;;;;;;5.77;1.70;;;9.70;30.10;;;;;;10368505;28;20225;-73
2022/02/19 07:58:41;;;;;;;4.67;1.47;;;9.70;30.00;;;;;;10365118;28;20710;-71
2022/02/19 08:03:45;;;;;;;4.53;1.60;;;9.80;30.00;;;;;;10372133;28;20233;-71
2022/02/19 08:08:48;;;;;;;3.73;1.57;;;9.90;29.80;;;;;;10364109;28;20225;-71
2022/02/19 08:13:53;;;;;;;3.73;1.37;;;10.00;28.50;;;;;;10369623;28;20602;-71
2022/02/19 08:18:57;;;;;;;3.20;1.40;;;10.10;28.40;;;;;;10368795;28;20745;-71
2022/02/19 08:24:01;;;;;;;4.87;1.60;;;10.20;28.50;;;;;;10370119;28;20317;-71
2022/02/19 08:29:05;;;;;;;2.27;1.30;;;10.20;28.40;;;;;;10370755;28;20235;-71
2022/02/19 08:34:10;;;;;;;4.10;1.57;;;10.30;27.40;;;;;;10365868;28;20233;-71
2022/02/19 08:39:13;;;;;;;3.97;1.60;;;10.40;27.30;;;;;;10369225;28;20236;-72
2022/02/19 08:44:17;;;;;;;2.97;1.30;;;10.40;26.80;;;;;;10365279;28;20230;-71
2022/02/19 08:49:21;;;;;;;5.37;1.70;;;10.40;26.90;;;;;;10370137;28;20231;-71
2022/02/19 08:54:24;;;;;;;3.67;1.40;;;10.40;26.70;;;;;;10367068;28;20234;-71
2022/02/19 08:59:28;;;;;;;2.40;1.40;;;10.40;26.70;;;;;;10368159;28;20230;-71
2022/02/19 09:04:31;;;;;;;2.77;1.43;;;10.50;26.50;;;;;;10359190;28;20545;-71
2022/02/19 09:09:36;;;;;;;4.70;1.50;;;10.50;26.90;;;;;;10360048;28;20230;-71
2022/02/19 09:14:41;;;;;;;5.37;1.67;;;10.60;27.00;;;;;;10369145;28;20222;-72
2022/02/19 09:19:44;;;;;;;4.60;1.83;;;10.70;25.90;;;;;;10362587;28;20222;-71
2022/02/19 09:24:47;;;;;;;2.07;1.47;;;10.70;26.70;;;;;;10361857;28;20230;-69
2022/02/19 09:29:52;;;;;;;4.53;1.80;;;10.70;26.60;;;;;;10361951;28;20230;-69
2022/02/19 09:34:55;;;;;;;2.97;1.40;;;10.90;25.90;;;;;;10365931;28;20718;-69
2022/02/19 09:39:59;;;;;;;3.23;1.60;;;10.90;25.40;;;;;;10367319;28;20230;-68
2022/02/19 09:45:04;;;;;;;3.13;1.47;;;11.00;25.80;;;;;;10359570;28;20226;-69
2022/02/19 09:50:09;;;;;;;2.57;1.30;;;11.00;25.10;;;;;;10365340;28;20608;-69
2022/02/19 09:55:12;;;;;;;2.00;1.13;;;11.00;25.60;;;;;;10369955;28;20732;-71
2022/02/19 10:00:28;;;;;;;4.10;1.57;;;11.10;25.30;;;;;;10360445;28;20230;-70
2022/02/19 10:05:33;;;;;;;6.40;1.50;;;11.10;24.70;;;;;;10367433;28;20222;-71
2022/02/19 10:10:38;;;;;;;2.87;1.10;;;11.20;25.90;;;;;;10359862;28;20222;-72
2022/02/19 10:15:50;;;;;;;4.57;1.30;;;11.20;25.70;;;;;;10362914;28;20272;-71
2022/02/19 10:21:08;;;;;;;3.57;1.30;;;11.30;24.20;;;;;;10366167;28;20218;-72
2022/02/19 10:26:13;;;;;;;2.77;1.10;;;11.40;25.20;;;;;;10360669;28;20236;-72
2022/02/19 10:31:18;;;;;;;2.90;1.23;;;11.30;24.60;;;;;;10358320;28;20236;-70
2022/02/19 10:36:22;;;;;;;2.67;1.30;;;11.40;25.30;;;;;;10359624;28;20234;-71
2022/02/19 10:41:36;;;;;;;3.70;1.30;;;11.50;25.30;;;;;;10361356;28;20233;-71
2022/02/19 10:46:40;;;;;;;4.07;1.40;;;11.60;22.90;;;;;;10362194;28;20600;-71
2022/02/19 10:51:44;;;;;;;4.20;1.50;;;11.70;24.70;;;;;;10368204;28;20234;-71
2022/02/19 10:56:47;;;;;;;3.43;1.43;;;11.80;24.90;;;;;;10356451;28;20786;-71
2022/02/19 11:01:53;;;;;;;3.17;1.37;;;11.80;25.50;;;;;;10358911;28;20229;-69
2022/02/19 11:06:57;;;;;;;2.83;1.67;;;11.80;24.80;;;;;;10360851;28;20226;-69
2022/02/19 11:12:02;;;;;;;2.63;1.30;;;12.00;25.10;;;;;;10359783;28;20222;-69
2022/02/19 11:17:12;;;;;;;3.20;1.23;;;12.00;25.30;;;;;;10358596;28;20234;-69
2022/02/19 11:22:17;;;;;;;3.50;1.30;;;12.10;25.10;;;;;;10361654;28;20222;-69
2022/02/19 11:27:21;;;;;;;5.43;1.27;;;12.20;24.20;;;;;;10365758;28;20233;-69
2022/02/19 11:32:28;;;;;;;3.60;1.27;;;12.20;23.60;;;;;;10359450;28;20258;-69
2022/02/19 11:37:37;;;;;;;2.13;1.07;;;12.20;23.60;;;;;;10356637;28;20237;-69
2022/02/19 11:42:46;;;;;;;2.87;1.30;;;12.20;24.00;;;;;;10364998;28;20718;-69
2022/02/19 11:47:52;;;;;;;3.47;1.40;;;12.20;23.10;;;;;;10367303;28;20237;-70
2022/02/19 11:53:23;;;;;;;3.60;1.43;;;12.10;24.10;;;;;;10364355;28;20596;-69
2022/02/19 11:58:27;;;;;;;4.40;1.40;;;12.20;22.50;;;;;;10354212;28;20230;-69
2022/02/19 12:03:34;;;;;;;2.90;1.10;;;12.20;24.10;;;;;;10360367;28;20450;-69
2022/02/19 12:09:14;;;;;;;2.93;1.03;;;12.30;23.30;;;;;;10365310;28;20230;-69
2022/02/19 12:14:53;;;;;;;2.43;1.27;;;12.20;22.00;;;;;;10362154;28;20618;-69
2022/02/19 12:20:03;;;;;;;2.97;1.40;;;12.30;22.50;;;;;;10367945;28;20226;-71
2022/02/19 12:25:08;;;;;;;2.27;1.20;;;12.30;22.70;;;;;;10371463;28;20768;-72
2022/02/19 12:30:23;;;;;;;2.03;1.20;;;12.40;21.50;;;;;;10365058;28;20276;-72
2022/02/19 12:35:40;;;;;;;1.70;1.30;;;12.40;20.20;;;;;;10366335;28;20229;-72
2022/02/19 12:40:43;;;;;;;2.60;1.20;;;12.30;22.10;;;;;;10368848;28;20284;-72
2022/02/19 12:45:48;;;;;;;2.70;1.43;;;12.40;23.40;;;;;;10365356;28;20714;-72
2022/02/19 12:50:58;;;;;;;2.80;1.17;;;12.40;22.60;;;;;;10364363;28;20436;-72
2022/02/19 12:56:01;;;;;;;2.80;1.40;;;12.40;21.80;;;;;;10365724;28;20657;-72
2022/02/19 13:01:06;;;;;;;2.50;1.20;;;12.30;22.00;;;;;;10362697;28;20249;-72
2022/02/19 13:06:11;;;;;;;2.50;1.30;;;12.30;22.50;;;;;;10362646;28;20238;-72
2022/02/19 13:11:15;;;;;;;3.63;1.53;;;12.30;22.30;;;;;;10362171;28;20357;-72
2022/02/19 13:16:22;;;;;;;2.23;1.17;;;12.20;22.10;;;;;;10364344;28;20238;-72
2022/02/19 13:21:30;;;;;;;2.10;1.13;;;12.30;22.10;;;;;;10368543;28;20648;-72
2022/02/19 13:26:34;;;;;;;2.17;1.27;;;12.30;21.70;;;;;;10366242;28;20230;-72
2022/02/19 13:31:38;;;;;;;2.33;1.30;;;12.30;22.60;;;;;;10358176;28;20229;-72
2022/02/19 13:36:42;;;;;;;2.30;1.23;;;12.40;22.50;;;;;;10355233;28;20230;-71
2022/02/19 13:41:52;;;;;;;2.70;0.90;;;12.40;22.10;;;;;;10363961;28;20230;-70
2022/02/19 13:46:56;;;;;;;2.17;1.03;;;12.40;21.80;;;;;;10362604;28;20261;-70
2022/02/19 13:52:00;;;;;;;2.53;1.10;;;12.50;22.10;;;;;;10366101;28;20224;-70
2022/02/19 13:57:17;;;;;;;3.60;1.10;;;12.50;21.30;;;;;;10365423;28;20384;-71
2022/02/19 14:02:36;;;;;;;1.73;1.00;;;12.50;20.20;;;;;;10364074;28;20586;-71
2022/02/19 14:07:56;;;;;;;2.60;1.00;;;12.50;21.70;;;;;;10369970;28;20226;-71
2022/02/19 14:13:08;;;;;;;2.23;1.30;;;12.50;18.90;;;;;;10358270;28;20296;-70
2022/02/19 14:18:12;;;;;;;2.43;1.40;;;12.40;20.20;;;;;;10351878;28;20226;-70
2022/02/19 14:23:21;;;;;;;2.30;1.00;;;12.40;21.20;;;;;;10356758;28;20607;-70
2022/02/19 14:28:26;;;;;;;2.67;1.30;;;12.40;20.20;;;;;;10351660;28;20230;-70
2022/02/19 14:33:30;;;;;;;2.67;1.43;;;12.30;21.30;;;;;;10351424;28;20765;-70
2022/02/19 14:38:36;;;;;;;2.60;1.30;;;12.30;21.50;;;;;;10350117;28;20264;-69
2022/02/19 14:43:39;;;;;;;2.90;1.50;;;12.20;21.40;;;;;;10353772;28;20689;-69
2022/02/19 14:48:43;;;;;;;1.30;1.10;;;12.20;20.60;;;;;;10352857;28;20230;-69
2022/02/19 14:53:48;;;;;;;2.20;1.20;;;12.20;20.70;;;;;;10349489;28;20617;-70
2022/02/19 14:58:51;;;;;;;3.20;1.10;;;12.10;21.00;;;;;;10354472;28;20252;-70
2022/02/19 15:03:55;;;;;;;2.43;1.17;;;12.10;21.60;;;;;;10352960;28;20773;-69
2022/02/19 15:08:59;;;;;;;2.37;1.20;;;12.10;20.80;;;;;;10351463;28;20249;-69
2022/02/19 15:14:02;;;;;;;1.33;1.10;;;12.10;20.00;;;;;;10357018;28;20691;-69
2022/02/19 15:19:06;;;;;;;1.67;0.90;;;12.10;21.00;;;;;;10352195;28;20240;-70
2022/02/19 15:24:11;;;;;;;2.20;1.10;;;12.10;21.00;;;;;;10356524;28;20273;-70
2022/02/19 15:29:14;;;;;;;2.17;1.00;;;12.00;20.90;;;;;;10355355;28;20230;-69
2022/02/19 15:34:17;;;;;;;4.37;2.30;;;12.00;21.20;;;;;;10351090;28;20251;-69
2022/02/19 15:39:24;;;;;;;3.03;1.37;;;12.10;21.30;;;;;;10347541;28;20357;-69
2022/02/19 15:44:27;;;;;;;2.60;1.27;;;12.10;21.00;;;;;;10356125;28;21155;-70
2022/02/19 15:49:31;;;;;;;2.70;1.10;;;12.10;21.40;;;;;;10359870;28;20229;-71
2022/02/19 15:54:35;;;;;;;1.57;1.00;;;12.10;20.80;;;;;;10361379;28;20240;-70
2022/02/19 15:59:38;;;;;;;2.10;1.23;;;12.00;21.00;;;;;;10360135;28;20225;-70
2022/02/19 16:04:42;;;;;;;3.17;1.40;;;12.00;20.80;;;;;;10358624;28;20956;-70
2022/02/19 16:09:46;;;;;;;2.03;1.33;;;11.90;20.70;;;;;;10356296;28;20226;-69
2022/02/19 16:14:50;;;;;;;3.43;1.47;;;11.90;20.90;;;;;;10364986;28;20226;-72
2022/02/19 16:19:53;;;;;;;6.27;1.63;;;11.80;21.10;;;;;;10363571;28;20618;-70
2022/02/19 16:24:58;;;;;;;1.70;1.20;;;11.80;21.50;;;;;;10367041;28;20218;-70
2022/02/19 16:30:01;;;;;;;4.33;2.03;;;11.80;21.30;;;;;;10368921;28;20233;-70
2022/02/19 16:35:06;;;;;;;3.67;2.30;;;11.90;21.60;;;;;;10364841;28;20406;-70
2022/02/19 16:40:11;;;;;;;5.23;2.33;;;11.80;21.40;;;;;;10362947;28;20650;-70
2022/02/19 16:45:14;;;;;;;5.33;2.67;;;11.80;21.30;;;;;;10367519;28;20227;-70
2022/02/19 16:50:17;;;;;;;3.53;2.00;;;11.80;21.60;;;;;;10360665;28;20376;-70
2022/02/19 16:55:22;;;;;;;4.00;2.67;;;11.70;21.80;;;;;;10366680;28;20232;-69
2022/02/19 17:00:25;;;;;;;4.10;2.30;;;11.60;21.60;;;;;;10364504;28;20234;-69
2022/02/19 17:05:29;;;;;;;3.60;2.17;;;11.50;21.90;;;;;;10367673;28;20817;-73
2022/02/19 17:10:33;;;;;;;4.10;3.00;;;11.50;22.00;;;;;;10369193;28;20225;-73
2022/02/19 17:15:37;;;;;;;3.07;2.63;;;11.50;21.80;;;;;;10365987;28;20230;-73
2022/02/19 17:20:40;;;;;;;6.23;3.93;;;11.50;21.80;;;;;;10364515;28;20232;-73
2022/02/19 17:25:44;;;;;;;5.33;4.00;;;11.40;21.90;;;;;;10368366;28;20226;-73
2022/02/19 17:30:48;;;;;;;7.87;5.50;;;11.30;22.20;;;;;;10358806;28;20230;-73
2022/02/19 17:35:52;;;;;;;7.70;5.43;;;11.20;22.30;;;;;;10360480;28;20242;-73
2022/02/19 17:40:58;;;;;;;8.50;6.90;;;11.20;22.20;;;;;;10364778;28;20271;-72
2022/02/19 17:46:01;;;;;;;6.67;4.20;;;11.20;22.30;;;;;;10357225;28;20241;-73
2022/02/19 17:51:05;;;;;;;3.77;3.23;;;11.20;22.30;;;;;;10362903;28;20230;-73
2022/02/19 17:56:09;;;;;;;6.33;3.27;;;11.10;22.40;;;;;;10364951;28;20230;-73
2022/02/19 18:01:13;;;;;;;7.77;3.93;;;11.00;22.50;;;;;;10362125;28;20226;-73
2022/02/19 18:06:16;;;;;;;7.63;4.33;;;10.90;22.40;;;;;;10361343;28;20710;-73
2022/02/19 18:11:21;;;;;;;9.80;5.47;;;10.60;22.50;;;;;;10363907;28;20232;-73
2022/02/19 18:16:25;;;;;;;5.50;3.03;;;10.50;22.70;;;;;;10363014;28;20619;-72
2022/02/19 18:21:28;;;;;;;5.03;3.10;;;10.30;22.60;;;;;;10359461;28;20233;-73
2022/02/19 18:26:32;;;;;;;4.73;3.40;;;10.10;22.70;;;;;;10371798;28;20229;-72
2022/02/19 18:31:39;;;;;;;5.40;3.53;;;9.90;23.60;;;;;;10370852;28;20224;-73
2022/02/19 18:36:42;;;;;;;4.63;3.60;;;9.60;23.50;;;;;;10358595;28;20602;-73
2022/02/19 18:41:47;;;;;;;6.17;4.47;;;9.50;23.80;;;;;;10362299;28;20218;-72
2022/02/19 18:46:50;;;;;;;7.83;5.63;;;9.40;24.10;;;;;;10361666;28;20230;-73
2022/02/19 18:51:54;;;;;;;7.43;5.83;;;9.30;24.10;;;;;;10362154;28;20226;-73
2022/02/19 18:56:58;;;;;;;12.37;10.23;;;9.30;24.10;;;;;;10360863;28;20236;-72
2022/02/19 19:02:01;;;;;;;14.17;9.67;;;9.20;24.10;;;;;;10354954;28;20226;-73
2022/02/19 19:07:06;;;;;;;8.70;7.80;;;9.10;24.10;;;;;;10358995;28;20282;-72
2022/02/19 19:12:10;;;;;;;9.07;7.40;;;8.90;24.00;;;;;;10359532;28;20301;-72
2022/02/19 19:17:14;;;;;;;7.63;5.73;;;8.70;24.30;;;;;;10338226;28;20668;-72
2022/02/19 19:22:17;;;;;;;6.13;5.50;;;8.60;24.30;;;;;;10336970;28;20594;-72
2022/02/19 19:27:21;;;;;;;10.60;9.27;;;8.40;24.50;;;;;;10318226;28;20732;-70
2022/02/19 19:32:25;;;;;;;10.77;8.43;;;8.30;24.80;;;;;;10323331;28;20231;-69
2022/02/19 19:37:30;;;;;;;8.50;7.27;;;8.20;24.70;;;;;;10316052;28;20253;-70
2022/02/19 19:42:35;;;;;;;11.47;9.03;;;8.20;24.80;;;;;;10319974;28;20230;-70
2022/02/19 19:47:38;;;;;;;14.07;9.50;;;8.10;25.00;;;;;;10330057;28;20228;-69
2022/02/19 19:52:41;;;;;;;9.30;7.27;;;8.00;25.00;;;;;;10320820;28;20234;-69
2022/02/19 19:57:47;;;;;;;8.30;6.80;;;7.80;25.00;;;;;;10312268;28;20235;-70
2022/02/19 20:02:50;;;;;;;6.80;4.90;;;7.60;25.20;;;;;;10309561;28;20234;-69
2022/02/19 20:07:53;;;;;;;5.37;3.97;;;7.50;25.20;;;;;;10309905;28;20242;-70
2022/02/19 20:12:59;;;;;;;6.20;4.60;;;7.30;25.40;;;;;;10308086;28;21001;-70
2022/02/19 20:18:03;;;;;;;6.10;4.60;;;7.20;25.80;;;;;;10344757;28;20834;-70
2022/02/19 20:23:07;;;;;;;7.33;4.77;;;7.10;25.80;;;;;;10350608;28;20607;-70
2022/02/19 20:28:12;;;;;;;8.17;5.50;;;7.00;25.90;;;;;;10352788;28;20321;-69
2022/02/19 20:33:15;;;;;;;8.43;5.10;;;6.90;26.20;;;;;;10339734;28;20338;-70
2022/02/19 20:38:18;;;;;;;9.43;5.30;;;6.90;26.20;;;;;;10313174;28;20234;-70
2022/02/19 20:43:23;;;;;;;9.07;4.80;;;6.80;26.30;;;;;;10338198;28;20255;-70
2022/02/19 20:48:26;;;;;;;7.00;4.70;;;6.70;26.70;;;;;;10347111;28;20754;-70
2022/02/19 20:53:32;;;;;;;8.73;3.97;;;6.60;26.90;;;;;;10317446;28;20715;-70
2022/02/19 20:58:37;;;;;;;5.13;4.30;;;6.60;26.90;;;;;;10335502;28;20229;-70
2022/02/19 21:03:40;;;;;;;5.50;4.07;;;6.50;26.90;;;;;;10356986;28;20741;-70
2022/02/19 21:08:44;;;;;;;5.63;3.90;;;6.50;26.90;;;;;;10348309;28;20713;-70
2022/02/19 21:13:48;;;;;;;4.73;3.17;;;6.40;26.80;;;;;;10353663;28;20229;-70
2022/02/19 21:18:51;;;;;;;6.60;3.93;;;6.40;27.20;;;;;;10359058;28;20230;-70
2022/02/19 21:23:55;;;;;;;9.13;4.57;;;6.40;27.10;;;;;;10357862;28;20226;-70
2022/02/19 21:28:59;;;;;;;10.80;6.97;;;6.40;27.30;;;;;;10356671;28;20226;-70
2022/02/19 21:34:03;;;;;;;12.50;6.20;;;6.40;27.60;;;;;;10360235;28;20240;-70
2022/02/19 21:39:07;;;;;;;8.03;5.30;;;6.30;27.50;;;;;;10353765;28;20268;-69
2022/02/19 21:44:12;;;;;;;6.67;4.17;;;6.30;27.60;;;;;;10354702;28;20227;-70
2022/02/19 21:49:15;;;;;;;6.13;3.70;;;6.30;27.90;;;;;;10355444;28;20231;-70
2022/02/19 21:54:20;;;;;;;6.53;3.73;;;6.30;27.80;;;;;;10357285;28;20738;-70
2022/02/19 21:59:25;;;;;;;8.03;3.60;;;6.30;27.90;;;;;;10358606;28;20864;-69
2022/02/19 22:04:28;;;;;;;7.50;3.70;;;6.30;28.30;;;;;;10357021;28;20281;-69
2022/02/19 22:09:31;;;;;;;6.90;3.60;;;6.20;28.20;;;;;;10358329;28;20244;-70
2022/02/19 22:14:37;;;;;;;7.53;3.40;;;6.20;28.30;;;;;;10355668;28;20723;-69
2022/02/19 22:19:40;;;;;;;5.77;3.33;;;6.20;28.50;;;;;;10357903;28;20229;-69
2022/02/19 22:24:43;;;;;;;5.47;3.23;;;6.20;28.30;;;;;;10363507;28;20725;-70
2022/02/19 22:29:47;;;;;;;6.60;3.03;;;6.20;28.40;;;;;;10356173;28;20234;-69
2022/02/19 22:34:51;;;;;;;5.53;3.17;;;6.20;28.80;;;;;;10352533;28;20241;-70
2022/02/19 22:39:54;;;;;;;7.90;3.40;;;6.10;28.40;;;;;;10365193;28;20260;-70
2022/02/19 22:44:59;;;;;;;6.13;2.83;;;6.10;28.60;;;;;;10363085;28;20221;-70
2022/02/19 22:50:07;;;;;;;6.30;2.50;;;6.10;28.80;;;;;;10364351;28;20824;-70
2022/02/19 22:55:10;;;;;;;5.03;2.57;;;6.10;28.90;;;;;;10365379;28;20738;-69
2022/02/19 23:00:52;;;;;;;5.27;2.50;;;6.10;28.80;;;;;;10366810;28;20241;-70
2022/02/19 23:05:55;;;;;;;5.00;2.30;;;6.10;29.50;;;;;;10366013;28;20221;-70
2022/02/19 23:10:59;;;;;;;4.70;2.37;;;6.20;28.80;;;;;;10360644;28;20812;-70
2022/02/19 23:16:06;;;;;;;5.57;2.43;;;6.20;28.90;;;;;;10366503;28;20347;-69
2022/02/19 23:21:09;;;;;;;4.13;2.53;;;6.20;29.50;;;;;;10363044;28;20229;-71
2022/02/19 23:26:12;;;;;;;6.23;2.13;;;6.30;29.10;;;;;;10361596;28;20230;-71
2022/02/19 23:31:20;;;;;;;5.37;2.07;;;6.40;29.10;;;;;;10367496;28;20230;-71
2022/02/19 23:36:23;;;;;;;4.27;1.97;;;6.40;29.40;;;;;;10366170;28;20224;-69
2022/02/19 23:41:28;;;;;;;3.90;1.83;;;6.50;29.20;;;;;;10361091;28;20275;-70
2022/02/19 23:46:33;;;;;;;4.07;2.00;;;6.70;29.30;;;;;;10365525;28;20230;-69
2022/02/19 23:51:36;;;;;;;3.40;2.10;;;6.80;29.40;;;;;;10371134;28;20513;-70
2022/02/19 23:56:40;;;;;;;3.40;1.60;;;6.80;29.20;;;;;;10365877;28;20305;-70
